Time;durP1;ratioP1;P1;durP2;ratioP2;P2;SDS_P1;SDS_P2;PMS_P1;PMS_P2;Temp;Humidity;BMP_temperature;BMP_pressure;BME280_temperature;BME280_humidity;BME280_pressure;Samples;Min_cycle;Max_cycle;Signal;HPM_P1;HPM_P2
2022/11/13 00:01:10;;;;;;;15.10;6.57;;;;;;;6.06;100.00;97304.59;5057842;28;20201;-73
2022/11/13 00:03:37;;;;;;;11.33;6.07;;;;;;;5.97;100.00;97301.06;5056931;28;20660;-71
2022/11/13 00:06:04;;;;;;;17.17;7.67;;;;;;;5.97;100.00;97298.44;5057318;28;20330;-72
2022/11/13 00:08:30;;;;;;;17.73;7.20;;;;;;;6.02;100.00;97291.06;5061366;28;20711;-72
2022/11/13 00:11:01;;;;;;;16.03;7.30;;;;;;;6.01;100.00;97282.41;5057567;28;20208;-71
2022/11/13 00:13:28;;;;;;;19.43;7.40;;;;;;;5.76;100.00;97284.47;5056729;28;20200;-72
2022/11/13 00:15:59;;;;;;;23.67;7.53;;;;;;;5.74;100.00;97281.13;5057910;28;20974;-72
2022/11/13 00:18:28;;;;;;;20.27;7.07;;;;;;;5.51;100.00;97287.34;5058730;28;20222;-71
2022/11/13 00:20:55;;;;;;;29.00;7.90;;;;;;;5.54;100.00;97293.16;5068798;28;20215;-71
2022/11/13 00:23:22;;;;;;;29.60;7.53;;;;;;;5.53;100.00;97288.06;5056656;28;20199;-70
2022/11/13 00:25:49;;;;;;;25.67;7.33;;;;;;;5.67;100.00;97285.19;5065548;28;20205;-70
2022/11/13 00:28:15;;;;;;;19.00;7.43;;;;;;;5.75;100.00;97290.63;5060910;28;20275;-70
2022/11/13 00:30:42;;;;;;;19.97;7.53;;;;;;;5.80;100.00;97284.09;5064985;28;20196;-70
2022/11/13 00:33:09;;;;;;;17.97;7.07;;;;;;;5.76;100.00;97285.31;5065653;28;20200;-70
2022/11/13 00:35:36;;;;;;;26.47;7.57;;;;;;;5.82;100.00;97268.31;5058415;28;20216;-70
2022/11/13 00:38:03;;;;;;;33.87;7.63;;;;;;;5.57;100.00;97268.56;5059767;28;20238;-70
2022/11/13 00:40:29;;;;;;;20.13;6.47;;;;;;;5.45;100.00;97266.94;5066964;28;20215;-70
2022/11/13 00:42:56;;;;;;;21.33;7.57;;;;;;;5.62;100.00;97261.19;5057295;28;20212;-70
2022/11/13 00:45:22;;;;;;;22.20;7.20;;;;;;;5.63;100.00;97260.25;5057581;28;20205;-70
2022/11/13 00:47:49;;;;;;;21.03;7.97;;;;;;;5.67;100.00;97259.03;5061545;28;20220;-70
2022/11/13 00:50:16;;;;;;;30.93;8.77;;;;;;;5.59;100.00;97256.22;5057949;28;20657;-70
2022/11/13 00:52:44;;;;;;;33.07;9.83;;;;;;;5.73;100.00;97248.91;5061281;28;20201;-70
2022/11/13 00:55:10;;;;;;;21.73;7.93;;;;;;;5.61;100.00;97260.38;5059916;28;20205;-70
2022/11/13 00:57:37;;;;;;;27.80;9.00;;;;;;;5.54;100.00;97250.50;5066075;28;20227;-70
2022/11/13 01:00:04;;;;;;;31.13;9.13;;;;;;;5.64;100.00;97244.44;5058485;28;21148;-70
2022/11/13 01:02:30;;;;;;;18.77;8.40;;;;;;;5.52;100.00;97244.56;5056799;28;20651;-70
2022/11/13 01:04:57;;;;;;;19.70;7.73;;;;;;;5.56;100.00;97245.97;5065545;28;20207;-70
2022/11/13 01:07:23;;;;;;;22.93;9.03;;;;;;;5.57;100.00;97245.84;5053742;28;20243;-70
2022/11/13 01:09:51;;;;;;;20.73;8.00;;;;;;;5.68;100.00;97235.38;5057568;28;20223;-70
2022/11/13 01:12:18;;;;;;;24.30;9.13;;;;;;;5.57;100.00;97245.03;5062841;28;20211;-70
2022/11/13 01:14:44;;;;;;;34.20;8.97;;;;;;;5.57;100.00;97242.41;5057212;28;20205;-70
2022/11/13 01:17:11;;;;;;;25.87;9.33;;;;;;;5.62;100.00;97230.63;5057621;28;20227;-70
2022/11/13 01:19:38;;;;;;;26.23;9.00;;;;;;;5.71;100.00;97226.47;5060082;28;20213;-70
2022/11/13 01:22:04;;;;;;;24.77;9.17;;;;;;;5.72;100.00;97222.91;5056923;28;20231;-70
2022/11/13 01:24:31;;;;;;;24.30;9.73;;;;;;;5.63;100.00;97215.78;5056718;28;20751;-70
2022/11/13 01:26:59;;;;;;;22.53;9.63;;;;;;;5.71;100.00;97219.44;5057972;28;20251;-70
2022/11/13 01:29:25;;;;;;;27.67;9.93;;;;;;;5.66;100.00;97211.13;5056683;28;20201;-70
2022/11/13 01:31:52;;;;;;;30.10;10.90;;;;;;;5.73;100.00;97211.50;5056601;28;20203;-70
2022/11/13 01:34:18;;;;;;;25.73;9.93;;;;;;;5.68;100.00;97213.66;5056531;28;20676;-70
2022/11/13 01:36:45;;;;;;;25.93;9.43;;;;;;;5.56;100.00;97210.22;5060640;28;20224;-70
2022/11/13 01:39:12;;;;;;;24.33;8.43;;;;;;;5.49;100.00;97206.44;5074322;28;20280;-70
2022/11/13 01:41:39;;;;;;;24.93;10.00;;;;;;;5.58;100.00;97205.69;5057193;28;20904;-70
2022/11/13 01:44:12;;;;;;;27.70;9.67;;;;;;;5.69;100.00;97205.66;5058492;28;20579;-70
2022/11/13 01:46:42;;;;;;;25.47;9.50;;;;;;;5.62;100.00;97208.91;5056555;28;20216;-70
2022/11/13 01:49:27;;;;;;;38.13;10.87;;;;;;;5.69;100.00;97199.59;5062333;28;20211;-70
2022/11/13 01:51:57;;;;;;;29.93;9.20;;;;;;;5.60;100.00;97195.94;5057793;28;20318;-70
2022/11/13 01:54:27;;;;;;;26.60;9.73;;;;;;;5.73;100.00;97195.81;5058106;28;21014;-70
2022/11/13 01:56:54;;;;;;;27.23;10.00;;;;;;;5.68;100.00;97197.94;5056701;28;20724;-70
2022/11/13 01:59:25;;;;;;;23.40;9.03;;;;;;;5.66;100.00;97197.22;5056908;28;20196;-70
2022/11/13 02:01:51;;;;;;;28.00;9.77;;;;;;;5.45;100.00;97191.94;5059844;28;20688;-70
2022/11/13 02:04:18;;;;;;;25.00;9.93;;;;;;;5.44;100.00;97184.25;5056401;28;20231;-70
2022/11/13 02:06:49;;;;;;;23.77;8.67;;;;;;;5.49;100.00;97182.09;5058293;28;20217;-70
2022/11/13 02:09:20;;;;;;;25.67;9.77;;;;;;;5.54;100.00;97174.72;5056629;28;20200;-70
2022/11/13 02:11:47;;;;;;;25.93;8.97;;;;;;;5.43;100.00;97172.97;5056373;28;20798;-70
2022/11/13 02:14:15;;;;;;;25.20;9.20;;;;;;;5.47;100.00;97173.53;5056536;28;20231;-70
2022/11/13 02:16:47;;;;;;;26.43;9.73;;;;;;;5.64;100.00;97162.56;5056647;28;20224;-70
2022/11/13 02:19:19;;;;;;;24.07;9.30;;;;;;;5.65;100.00;97161.56;5056982;28;20204;-70
2022/11/13 02:21:54;;;;;;;22.30;9.60;;;;;;;5.73;100.00;97159.19;5065060;28;20193;-70
2022/11/13 02:24:29;;;;;;;27.23;9.47;;;;;;;5.58;100.00;97152.59;5059466;28;20196;-70
2022/11/13 02:27:02;;;;;;;27.13;10.07;;;;;;;5.67;100.00;97157.06;5069152;28;20223;-70
2022/11/13 02:29:29;;;;;;;25.03;9.70;;;;;;;5.65;100.00;97153.72;5056755;28;20200;-70
2022/11/13 02:31:55;;;;;;;27.67;9.83;;;;;;;5.53;100.00;97146.91;5056014;28;20211;-70
2022/11/13 02:34:22;;;;;;;27.97;9.93;;;;;;;5.60;100.00;97142.81;5063920;28;20208;-70
2022/11/13 02:36:49;;;;;;;30.73;10.30;;;;;;;5.45;100.00;97144.09;5056783;28;20231;-70
2022/11/13 02:39:16;;;;;;;28.67;10.23;;;;;;;5.37;100.00;97141.22;5069263;28;20200;-70
2022/11/13 02:41:43;;;;;;;28.27;9.67;;;;;;;5.50;100.00;97139.31;5063993;28;20205;-70
2022/11/13 02:44:10;;;;;;;32.10;10.17;;;;;;;5.41;100.00;97134.84;5055928;28;20700;-70
2022/11/13 02:46:37;;;;;;;32.20;9.67;;;;;;;5.40;100.00;97138.41;5056286;28;20201;-70
2022/11/13 02:49:04;;;;;;;24.17;9.40;;;;;;;5.30;100.00;97142.69;5057938;28;20457;-70
2022/11/13 02:51:31;;;;;;;21.40;8.53;;;;;;;5.30;100.00;97123.59;5058351;28;20205;-70
2022/11/13 02:53:57;;;;;;;26.60;9.43;;;;;;;5.11;100.00;97129.44;5060765;28;20681;-70
2022/11/13 02:56:24;;;;;;;24.30;9.90;;;;;;;5.17;100.00;97117.69;5059455;28;20208;-70
2022/11/13 02:58:52;;;;;;;22.00;8.77;;;;;;;5.34;100.00;97112.75;5059871;28;20203;-70
2022/11/13 03:01:18;;;;;;;27.27;10.20;;;;;;;5.29;100.00;97117.50;5067449;28;20208;-70
2022/11/13 03:03:45;;;;;;;22.53;9.27;;;;;;;5.27;100.00;97119.44;5059174;28;20204;-70
2022/11/13 03:06:11;;;;;;;22.03;9.40;;;;;;;5.26;100.00;97117.78;5060154;28;20917;-70
2022/11/13 03:08:38;;;;;;;23.43;8.90;;;;;;;5.30;100.00;97113.13;5065748;28;20220;-70
2022/11/13 03:11:08;;;;;;;21.93;8.47;;;;;;;5.23;100.00;97120.63;5060386;28;20603;-70
2022/11/13 03:13:35;;;;;;;25.77;9.73;;;;;;;5.23;100.00;97115.41;5072261;28;20261;-70
2022/11/13 03:16:08;;;;;;;26.07;9.60;;;;;;;5.28;100.00;97115.84;5072157;28;20215;-70
2022/11/13 03:18:34;;;;;;;23.90;8.47;;;;;;;5.23;100.00;97118.03;5059340;28;20224;-70
2022/11/13 03:21:06;;;;;;;25.87;9.53;;;;;;;5.47;100.00;97109.03;5070994;28;20680;-70
2022/11/13 03:23:33;;;;;;;25.50;9.63;;;;;;;5.40;100.00;97108.81;5074998;28;20203;-70
2022/11/13 03:26:03;;;;;;;23.47;9.00;;;;;;;5.51;100.00;97106.97;5063695;28;20201;-70
2022/11/13 03:28:29;;;;;;;24.73;9.33;;;;;;;5.38;100.00;97106.31;5068505;28;20232;-70
2022/11/13 03:30:56;;;;;;;22.80;8.93;;;;;;;5.45;100.00;97099.66;5059155;28;20219;-70
2022/11/13 03:33:24;;;;;;;27.27;10.40;;;;;;;5.48;100.00;97102.81;5066978;28;20695;-70
2022/11/13 03:35:50;;;;;;;22.27;9.33;;;;;;;5.26;100.00;97102.09;5075625;28;20219;-70
2022/11/13 03:38:17;;;;;;;21.97;9.40;;;;;;;5.34;100.00;97097.06;5064371;28;20231;-70
2022/11/13 03:40:43;;;;;;;27.17;9.70;;;;;;;5.24;100.00;97098.75;5070492;28;20200;-70
2022/11/13 03:43:10;;;;;;;28.83;9.40;;;;;;;5.30;100.00;97093.03;5065330;28;20208;-70
2022/11/13 03:45:36;;;;;;;24.20;9.23;;;;;;;5.38;100.00;97082.78;5059131;28;20211;-70
2022/11/13 03:48:03;;;;;;;22.70;8.63;;;;;;;5.44;100.00;97088.34;5059829;28;20236;-70
2022/11/13 03:50:31;;;;;;;26.43;9.43;;;;;;;5.49;100.00;97083.56;5075787;28;20200;-70
2022/11/13 03:52:57;;;;;;;26.17;9.10;;;;;;;5.53;100.00;97073.72;5064433;28;20210;-70
2022/11/13 03:55:24;;;;;;;26.33;10.83;;;;;;;5.44;100.00;97074.47;5067458;28;20211;-70
2022/11/13 03:57:50;;;;;;;25.53;10.47;;;;;;;5.43;100.00;97070.19;5074045;28;20220;-70
2022/11/13 04:00:17;;;;;;;23.77;10.60;;;;;;;5.39;100.00;97068.78;5066427;28;20204;-70
2022/11/13 04:02:44;;;;;;;32.73;10.30;;;;;;;5.51;100.00;97070.38;5060547;28;20566;-70
2022/11/13 04:05:11;;;;;;;23.80;10.00;;;;;;;5.48;100.00;97063.63;5066102;28;20201;-70
2022/11/13 04:07:39;;;;;;;22.93;9.27;;;;;;;5.55;100.00;97069.19;5057698;28;21130;-70
2022/11/13 04:10:06;;;;;;;27.37;9.73;;;;;;;5.54;100.00;97057.88;5058666;28;20207;-70
2022/11/13 04:12:33;;;;;;;27.20;10.03;;;;;;;5.60;100.00;97056.53;5073678;28;20204;-70
2022/11/13 04:14:59;;;;;;;24.87;9.07;;;;;;;5.51;100.00;97057.31;5057919;28;20994;-70
2022/11/13 04:17:26;;;;;;;28.10;10.40;;;;;;;5.50;100.00;97042.59;5058543;28;20240;-70
2022/11/13 04:19:52;;;;;;;27.20;9.37;;;;;;;5.48;100.00;97036.66;5063364;28;20200;-70
2022/11/13 04:22:19;;;;;;;24.77;9.67;;;;;;;5.51;100.00;97037.25;5075590;28;20207;-70
2022/11/13 04:24:47;;;;;;;24.83;9.80;;;;;;;5.35;100.00;97038.63;5058010;28;20586;-70
2022/11/13 04:27:13;;;;;;;25.77;9.80;;;;;;;5.31;100.00;97037.22;5075183;28;20224;-70
2022/11/13 04:29:40;;;;;;;22.97;9.23;;;;;;;5.44;100.00;97033.47;5058380;28;20231;-70
2022/11/13 04:32:06;;;;;;;23.33;8.97;;;;;;;5.36;100.00;97037.69;5057705;28;20208;-70
2022/11/13 04:34:33;;;;;;;23.53;8.60;;;;;;;5.43;100.00;97033.59;5074912;28;20200;-70
2022/11/13 04:36:59;;;;;;;24.33;9.47;;;;;;;5.46;100.00;97033.34;5063549;28;20240;-70
2022/11/13 04:39:26;;;;;;;23.70;9.30;;;;;;;5.46;100.00;97028.94;5067589;28;20661;-70
2022/11/13 04:44:38;;;;;;;23.80;8.93;;;;;;;5.25;100.00;97027.28;5057242;28;20309;-70
2022/11/13 04:47:05;;;;;;;25.67;9.40;;;;;;;5.34;100.00;97029.13;5057729;28;20224;-70
2022/11/13 04:49:31;;;;;;;23.33;9.57;;;;;;;5.44;100.00;97027.41;5057588;28;20587;-70
2022/11/13 04:51:58;;;;;;;23.53;8.73;;;;;;;5.42;100.00;97024.09;5059901;28;20206;-70
2022/11/13 04:54:24;;;;;;;24.87;9.50;;;;;;;5.41;100.00;97034.69;5059330;28;20215;-70
2022/11/13 04:56:51;;;;;;;21.63;8.70;;;;;;;5.26;100.00;97028.94;5057582;28;20220;-70
2022/11/13 04:59:19;;;;;;;23.73;9.60;;;;;;;5.43;100.00;97032.78;5058379;28;20197;-70
2022/11/13 05:01:45;;;;;;;25.37;8.80;;;;;;;5.31;100.00;97020.69;5057724;28;20622;-70
2022/11/13 05:04:12;;;;;;;27.90;10.10;;;;;;;5.24;100.00;97017.75;5056612;28;20200;-70
2022/11/13 05:06:38;;;;;;;21.77;8.03;;;;;;;5.38;100.00;97016.66;5057781;28;20234;-70
2022/11/13 05:09:05;;;;;;;25.20;9.60;;;;;;;5.25;100.00;97011.59;5057711;28;20228;-70
2022/11/13 05:11:31;;;;;;;27.30;9.43;;;;;;;5.30;100.00;97012.03;5057024;28;20211;-70
2022/11/13 05:13:58;;;;;;;25.07;9.53;;;;;;;5.06;100.00;97016.66;5056824;28;20215;-70
2022/11/13 05:16:26;;;;;;;27.07;8.80;;;;;;;5.28;100.00;97005.28;5057360;28;20201;-70
2022/11/13 05:18:52;;;;;;;23.47;9.67;;;;;;;5.21;100.00;97004.97;5056266;28;21020;-70
2022/11/13 05:21:19;;;;;;;24.87;8.50;;;;;;;5.03;100.00;97001.25;5057341;28;20216;-70
2022/11/13 05:23:45;;;;;;;28.50;10.27;;;;;;;5.01;100.00;96997.91;5064491;28;20208;-70
2022/11/13 05:26:13;;;;;;;26.73;9.57;;;;;;;5.08;100.00;96995.66;5057013;28;20207;-70
2022/11/13 05:28:40;;;;;;;24.67;9.33;;;;;;;5.04;100.00;96992.47;5064731;28;20224;-70
2022/11/13 05:31:09;;;;;;;26.23;10.03;;;;;;;5.11;100.00;96988.38;5057255;28;20354;-70
2022/11/13 05:33:37;;;;;;;25.17;9.50;;;;;;;5.17;100.00;96987.88;5056557;28;20211;-70
2022/11/13 05:36:06;;;;;;;27.17;9.47;;;;;;;5.15;100.00;96981.94;5057103;28;20223;-70
2022/11/13 05:38:32;;;;;;;26.00;9.70;;;;;;;5.12;100.00;96990.03;5061000;28;20235;-70
2022/11/13 05:41:03;;;;;;;27.97;9.90;;;;;;;5.23;100.00;96991.78;5062587;28;20203;-69
2022/11/13 05:43:30;;;;;;;29.10;10.67;;;;;;;5.20;100.00;96990.22;5056374;28;20242;-70
2022/11/13 05:46:01;;;;;;;27.77;9.97;;;;;;;5.19;100.00;96980.72;5056908;28;20200;-70
2022/11/13 05:48:28;;;;;;;24.23;8.73;;;;;;;5.09;100.00;96992.91;5056707;28;20228;-70
2022/11/13 05:51:01;;;;;;;19.97;8.20;;;;;;;5.25;100.00;96995.09;5057072;28;20235;-70
2022/11/13 05:53:28;;;;;;;21.57;8.27;;;;;;;5.02;100.00;96989.13;5061163;28;20255;-70
2022/11/13 05:55:54;;;;;;;24.80;8.70;;;;;;;5.01;100.00;96992.69;5056848;28;20203;-70
2022/11/13 05:58:21;;;;;;;21.80;8.33;;;;;;;5.13;100.00;96985.63;5056596;28;20216;-73
2022/11/13 06:00:47;;;;;;;20.43;7.87;;;;;;;5.18;100.00;96981.72;5057561;28;20201;-71
2022/11/13 06:03:14;;;;;;;21.33;8.73;;;;;;;4.93;100.00;96987.28;5063503;28;20211;-71
2022/11/13 06:05:40;;;;;;;18.67;8.40;;;;;;;5.05;100.00;96990.66;5063612;28;20691;-72
2022/11/13 06:08:08;;;;;;;22.93;8.87;;;;;;;4.93;100.00;96989.88;5057157;28;20227;-72
2022/11/13 06:10:34;;;;;;;28.30;9.13;;;;;;;5.03;100.00;96993.41;5056455;28;20587;-71
2022/11/13 06:13:01;;;;;;;20.07;7.30;;;;;;;5.05;100.00;96986.28;5055945;28;20200;-72
2022/11/13 06:15:27;;;;;;;19.93;8.40;;;;;;;5.05;100.00;96983.69;5056581;28;21209;-71
2022/11/13 06:17:54;;;;;;;21.27;7.67;;;;;;;5.02;100.00;96968.25;5059682;28;20232;-72
2022/11/13 06:20:20;;;;;;;24.83;8.80;;;;;;;4.95;100.00;96966.25;5056457;28;20196;-72
2022/11/13 06:22:47;;;;;;;22.37;8.40;;;;;;;4.82;100.00;96963.84;5062000;28;20204;-72
2022/11/13 06:25:15;;;;;;;24.27;8.53;;;;;;;4.73;100.00;96958.50;5063725;28;20214;-71
2022/11/13 06:27:41;;;;;;;20.10;7.03;;;;;;;4.76;100.00;96960.91;5056455;28;20231;-72
2022/11/13 06:30:09;;;;;;;24.50;9.43;;;;;;;4.79;100.00;96963.25;5059452;28;20583;-71
2022/11/13 06:32:36;;;;;;;22.17;8.03;;;;;;;4.71;100.00;96957.81;5059986;28;20219;-70
2022/11/13 06:35:02;;;;;;;25.00;9.10;;;;;;;4.65;100.00;96957.50;5060292;28;20649;-71
2022/11/13 06:37:29;;;;;;;24.23;8.57;;;;;;;4.66;100.00;96964.34;5060718;28;20224;-70
2022/11/13 06:39:55;;;;;;;19.13;7.87;;;;;;;4.79;100.00;96954.59;5070321;28;20576;-71
2022/11/13 06:42:23;;;;;;;25.40;8.63;;;;;;;4.76;100.00;96950.44;5061664;28;20201;-71
2022/11/13 06:44:49;;;;;;;21.00;8.50;;;;;;;4.65;100.00;96944.44;5060292;28;20197;-69
2022/11/13 06:47:16;;;;;;;24.33;8.60;;;;;;;4.73;100.00;96945.47;5067828;28;20602;-71
2022/11/13 06:49:42;;;;;;;23.67;8.70;;;;;;;4.82;100.00;96950.78;5060328;28;20220;-69
2022/11/13 06:52:09;;;;;;;29.57;9.27;;;;;;;4.51;100.00;96958.59;5062992;28;20204;-69
2022/11/13 06:54:35;;;;;;;21.10;8.43;;;;;;;4.70;100.00;96953.56;5062848;28;21208;-69
2022/11/13 06:57:02;;;;;;;31.07;9.97;;;;;;;4.81;100.00;96947.44;5060107;28;20243;-69
2022/11/13 06:59:30;;;;;;;25.50;9.90;;;;;;;4.85;100.00;96941.88;5059839;28;20208;-69
2022/11/13 07:01:56;;;;;;;23.17;9.20;;;;;;;4.85;100.00;96945.31;5059909;28;20232;-67
2022/11/13 07:04:23;;;;;;;22.93;8.77;;;;;;;4.78;100.00;96952.94;5059118;28;20833;-69
2022/11/13 07:06:49;;;;;;;26.73;9.87;;;;;;;4.79;100.00;96944.16;5060875;28;20227;-69
2022/11/13 07:09:16;;;;;;;24.67;9.17;;;;;;;4.72;100.00;96935.16;5059660;28;20231;-69
2022/11/13 07:11:42;;;;;;;27.10;9.43;;;;;;;4.73;100.00;96931.59;5059592;28;20197;-69
2022/11/13 07:14:10;;;;;;;30.53;9.83;;;;;;;4.74;100.00;96931.47;5059048;28;20204;-69
2022/11/13 07:16:38;;;;;;;27.43;9.87;;;;;;;4.74;100.00;96931.47;5059736;28;20212;-67
2022/11/13 07:19:05;;;;;;;26.80;10.57;;;;;;;4.85;100.00;96932.25;5057066;28;20211;-70
2022/11/13 07:21:31;;;;;;;28.93;10.63;;;;;;;4.91;100.00;96923.91;5067165;28;20845;-70
2022/11/13 07:23:58;;;;;;;33.13;11.33;;;;;;;4.66;100.00;96917.38;5059144;28;20209;-68
2022/11/13 07:26:24;;;;;;;33.03;10.43;;;;;;;4.80;100.00;96925.75;5058350;28;20201;-69
2022/11/13 07:28:51;;;;;;;29.33;10.57;;;;;;;4.80;100.00;96930.97;5067440;28;20467;-68
2022/11/13 07:31:18;;;;;;;26.17;10.40;;;;;;;4.85;100.00;96926.22;5066182;28;20207;-69
2022/11/13 07:33:48;;;;;;;29.63;11.00;;;;;;;4.91;100.00;96923.91;5065177;28;20201;-69
2022/11/13 07:36:15;;;;;;;34.47;11.13;;;;;;;6.22;100.00;96911.66;5065403;28;20639;-69
2022/11/13 07:38:42;;;;;;;31.47;10.93;;;;;;;5.48;100.00;96913.81;5066072;28;20592;-70
2022/11/13 07:41:09;;;;;;;27.63;10.47;;;;;;;5.34;100.00;96906.31;5067256;28;20200;-69
2022/11/13 07:43:36;;;;;;;28.50;10.27;;;;;;;5.26;100.00;96892.25;5070804;28;20250;-69
2022/11/13 07:46:03;;;;;;;25.03;10.80;;;;;;;5.24;100.00;96888.94;5069108;28;20849;-69
2022/11/13 07:48:29;;;;;;;26.47;9.80;;;;;;;5.10;100.00;96878.81;5058189;28;20232;-69
2022/11/13 07:51:00;;;;;;;24.43;10.03;;;;;;;5.14;100.00;96878.44;5059054;28;20286;-69
2022/11/13 07:53:26;;;;;;;28.60;10.13;;;;;;;5.04;100.00;96877.53;5061755;28;20220;-69
2022/11/13 07:55:53;;;;;;;32.27;11.17;;;;;;;5.13;100.00;96888.97;5059634;28;20196;-69
2022/11/13 07:58:19;;;;;;;34.13;10.40;;;;;;;4.99;100.00;96878.84;5062784;28;20708;-69
2022/11/13 08:00:46;;;;;;;30.17;11.80;;;;;;;5.10;100.00;96882.22;5059191;28;20208;-69
2022/11/13 08:03:14;;;;;;;33.03;11.37;;;;;;;5.22;100.00;96870.78;5064324;28;21325;-69
2022/11/13 08:05:41;;;;;;;27.60;10.70;;;;;;;5.08;100.00;96883.34;5064213;28;20207;-69
2022/11/13 08:08:12;;;;;;;30.17;11.27;;;;;;;5.14;100.00;96875.81;5065267;28;20224;-69
2022/11/13 08:10:38;;;;;;;32.87;12.17;;;;;;;5.27;100.00;96891.28;5063991;28;20223;-69
2022/11/13 08:13:06;;;;;;;26.63;10.07;;;;;;;5.25;100.00;96886.19;5061343;28;20200;-69
2022/11/13 08:15:33;;;;;;;29.57;11.33;;;;;;;5.13;100.00;96896.81;5058877;28;20569;-69
2022/11/13 08:18:02;;;;;;;28.60;10.93;;;;;;;5.30;100.00;96886.63;5061552;28;20716;-69
2022/11/13 08:20:29;;;;;;;27.90;11.00;;;;;;;5.28;100.00;96883.28;5061270;28;20203;-69
2022/11/13 08:22:57;;;;;;;26.83;10.90;;;;;;;5.31;100.00;96884.81;5057562;28;20202;-69
2022/11/13 08:25:25;;;;;;;25.53;10.43;;;;;;;5.47;100.00;96867.72;5065867;28;20200;-69
2022/11/13 08:27:53;;;;;;;29.73;10.70;;;;;;;5.58;100.00;96885.94;5063745;28;20223;-69
2022/11/13 08:30:20;;;;;;;28.33;9.30;;;;;;;5.31;100.00;96869.16;5057867;28;20220;-69
2022/11/13 08:32:48;;;;;;;24.43;10.37;;;;;;;5.26;100.00;96861.72;5057661;28;20200;-69
2022/11/13 08:35:14;;;;;;;24.23;10.73;;;;;;;5.41;100.00;96859.56;5064367;28;20222;-69
2022/11/13 08:37:41;;;;;;;26.30;10.20;;;;;;;5.64;100.00;96864.50;5057927;28;20231;-69
2022/11/13 08:40:09;;;;;;;24.17;10.17;;;;;;;5.79;100.00;96865.81;5062027;28;20207;-69
2022/11/13 08:42:37;;;;;;;28.73;10.80;;;;;;;5.83;100.00;96868.03;5059680;28;20220;-69
2022/11/13 08:45:04;;;;;;;26.87;11.20;;;;;;;5.76;100.00;96866.91;5063486;28;20567;-69
2022/11/13 08:47:30;;;;;;;23.10;10.80;;;;;;;5.78;100.00;96867.63;5059676;28;20224;-69
2022/11/13 08:49:57;;;;;;;25.33;10.97;;;;;;;5.93;100.00;96865.44;5064550;28;20224;-69
2022/11/13 08:52:23;;;;;;;26.47;11.10;;;;;;;5.99;100.00;96878.00;5058823;28;20207;-69
2022/11/13 08:54:50;;;;;;;26.90;11.03;;;;;;;5.95;100.00;96879.22;5057778;28;20204;-69
2022/11/13 08:57:16;;;;;;;25.77;10.80;;;;;;;6.00;100.00;96875.25;5060581;28;21037;-69
2022/11/13 08:59:44;;;;;;;28.23;10.57;;;;;;;5.96;100.00;96873.84;5057989;28;20199;-69
2022/11/13 09:02:14;;;;;;;25.13;11.03;;;;;;;6.05;100.00;96873.06;5060746;28;20203;-69
2022/11/13 09:04:42;;;;;;;23.80;10.03;;;;;;;6.02;100.00;96882.94;5064221;28;20196;-69
2022/11/13 09:07:10;;;;;;;22.57;10.23;;;;;;;6.21;100.00;96876.81;5068618;28;20232;-69
2022/11/13 09:09:36;;;;;;;27.50;11.77;;;;;;;6.22;100.00;96875.00;5061063;28;20223;-69
2022/11/13 09:12:03;;;;;;;26.10;10.20;;;;;;;6.36;100.00;96870.19;5059619;28;20211;-69
2022/11/13 09:14:30;;;;;;;24.07;10.47;;;;;;;6.45;100.00;96868.56;5062683;28;20200;-69
2022/11/13 09:16:58;;;;;;;24.93;10.73;;;;;;;6.62;100.00;96875.72;5064458;28;20273;-69
2022/11/13 09:19:24;;;;;;;28.30;11.07;;;;;;;6.48;100.00;96870.91;5062185;28;20205;-69
2022/11/13 09:21:51;;;;;;;26.80;10.50;;;;;;;6.55;100.00;96862.38;5064823;28;20203;-69
2022/11/13 09:24:17;;;;;;;26.10;10.67;;;;;;;6.57;100.00;96855.22;5061523;28;20235;-69
2022/11/13 09:26:44;;;;;;;25.73;11.00;;;;;;;6.71;100.00;96860.03;5057296;28;20247;-69
2022/11/13 09:29:10;;;;;;;24.70;10.97;;;;;;;6.67;100.00;96850.81;5061246;28;20224;-69
2022/11/13 09:31:39;;;;;;;24.23;10.90;;;;;;;6.84;100.00;96834.38;5066518;28;20754;-69
2022/11/13 09:34:08;;;;;;;26.07;10.47;;;;;;;7.12;100.00;96836.13;5065738;28;20209;-69
2022/11/13 09:36:35;;;;;;;24.17;10.90;;;;;;;7.23;100.00;96841.19;5067903;28;20204;-69
2022/11/13 09:39:01;;;;;;;23.90;10.27;;;;;;;7.39;100.00;96842.25;5064734;28;20677;-69
2022/11/13 09:41:34;;;;;;;21.53;9.93;;;;;;;7.39;100.00;96832.56;5062680;28;20200;-69
2022/11/13 09:44:05;;;;;;;19.67;9.97;;;;;;;7.26;100.00;96843.53;5063171;28;20207;-70
2022/11/13 09:46:38;;;;;;;18.43;8.37;;;;;;;7.11;100.00;96837.09;5062340;28;20207;-69
2022/11/13 09:49:16;;;;;;;20.27;9.97;;;;;;;7.60;100.00;96840.22;5063252;28;20548;-69
2022/11/13 09:51:48;;;;;;;22.83;9.47;;;;;;;7.46;100.00;96835.47;5056224;28;20699;-69
2022/11/13 09:54:16;;;;;;;23.47;10.53;;;;;;;7.46;100.00;96831.03;5056007;28;20208;-69
2022/11/13 09:56:50;;;;;;;18.87;8.90;;;;;;;7.68;100.00;96832.47;5056045;28;20723;-69
2022/11/13 09:59:25;;;;;;;21.23;9.97;;;;;;;7.82;100.00;96832.81;5057249;28;20203;-69
2022/11/13 10:01:59;;;;;;;21.30;8.90;;;;;;;7.82;100.00;96830.19;5071278;28;20196;-69
2022/11/13 10:04:37;;;;;;;19.33;9.10;;;;;;;7.63;100.00;96832.91;5055097;28;20212;-69
2022/11/13 10:07:17;;;;;;;21.13;9.07;;;;;;;7.57;100.00;96820.34;5055280;28;20724;-69
2022/11/13 10:10:01;;;;;;;18.13;9.23;;;;;;;7.74;100.00;96822.22;5066476;28;20212;-70
2022/11/13 10:12:31;;;;;;;17.17;8.70;;;;;;;7.55;100.00;96819.69;5065891;28;20214;-69
2022/11/13 10:15:02;;;;;;;18.93;8.80;;;;;;;7.62;100.00;96825.19;5064714;28;20204;-69
2022/11/13 10:17:35;;;;;;;16.17;8.20;;;;;;;7.64;100.00;96828.50;5068314;28;20220;-69
2022/11/13 10:20:11;;;;;;;14.77;7.57;;;;;;;7.54;100.00;96822.47;5065392;28;20192;-69
2022/11/13 10:22:42;;;;;;;22.20;8.70;;;;;;;7.55;100.00;96819.69;5066638;28;20208;-69
2022/11/13 10:25:16;;;;;;;17.03;8.40;;;;;;;7.95;100.00;96817.56;5065552;28;20213;-69
2022/11/13 10:27:44;;;;;;;18.47;8.63;;;;;;;8.25;100.00;96802.34;5065153;28;20231;-69
2022/11/13 10:30:14;;;;;;;15.77;8.47;;;;;;;8.41;100.00;96794.59;5061040;28;20225;-69
2022/11/13 10:32:41;;;;;;;18.00;9.20;;;;;;;8.64;100.00;96794.00;5055931;28;20676;-69
2022/11/13 10:35:28;;;;;;;16.43;8.57;;;;;;;8.91;100.00;96780.75;5056112;28;20213;-69
2022/11/13 10:37:59;;;;;;;15.07;7.73;;;;;;;9.23;100.00;96778.31;5056014;28;20228;-69
2022/11/13 10:40:27;;;;;;;16.73;7.83;;;;;;;9.36;100.00;96776.91;5071536;28;20245;-69
2022/11/13 10:42:53;;;;;;;15.40;7.93;;;;;;;9.37;100.00;96775.13;5055545;28;20204;-69
2022/11/13 10:45:22;;;;;;;15.23;7.53;;;;;;;9.65;99.99;96763.38;5053626;28;20228;-70
2022/11/13 10:47:50;;;;;;;16.30;7.90;;;;;;;9.73;100.00;96762.44;5056106;28;20224;-70
2022/11/13 10:50:23;;;;;;;14.40;7.90;;;;;;;9.91;98.17;96754.44;5057009;28;20224;-70
2022/11/13 10:52:51;;;;;;;15.23;8.00;;;;;;;9.82;97.46;96760.66;5059532;28;20208;-70
2022/11/13 10:55:26;;;;;;;14.37;7.67;;;;;;;9.71;98.04;96747.78;5058717;28;20197;-70
2022/11/13 10:57:57;;;;;;;15.80;6.77;;;;;;;9.57;98.35;96737.88;5057359;28;20251;-70
2022/11/13 11:00:29;;;;;;;14.17;7.33;;;;;;;9.29;100.00;96735.59;5059266;28;20200;-70
2022/11/13 11:02:56;;;;;;;14.17;7.63;;;;;;;9.14;100.00;96731.94;5057057;28;20219;-70
2022/11/13 11:05:25;;;;;;;17.57;8.03;;;;;;;8.70;100.00;96719.81;5059016;28;20204;-70
2022/11/13 11:07:53;;;;;;;14.83;8.30;;;;;;;8.82;100.00;96708.09;5055974;28;20235;-70
2022/11/13 11:10:25;;;;;;;16.10;7.73;;;;;;;8.93;100.00;96702.56;5059105;28;20272;-70
2022/11/13 11:12:53;;;;;;;22.00;9.93;;;;;;;9.00;100.00;96702.75;5055886;28;20200;-70
2022/11/13 11:15:24;;;;;;;16.13;8.00;;;;;;;9.33;100.00;96694.84;5056462;28;20224;-70
2022/11/13 11:17:54;;;;;;;15.40;8.07;;;;;;;9.24;100.00;96691.38;5068084;28;20224;-70
2022/11/13 11:20:37;;;;;;;15.47;8.30;;;;;;;9.48;100.00;96688.84;5073743;28;20203;-70
2022/11/13 11:23:15;;;;;;;17.67;8.07;;;;;;;9.60;100.00;96676.19;5058264;28;20209;-70
2022/11/13 11:25:45;;;;;;;17.00;8.00;;;;;;;9.45;100.00;96669.94;5074832;28;20200;-70
2022/11/13 11:28:32;;;;;;;18.13;8.00;;;;;;;9.70;100.00;96661.94;5060028;28;20230;-70
2022/11/13 11:31:11;;;;;;;14.90;8.17;;;;;;;9.82;99.77;96652.75;5062562;28;20749;-70